Latest Weather Observations for Tewantin

IDQ60801

Issued at 3:05 pm EST Friday 25 April 2014 (issued every 30 minutes, with the page automatically refreshed every 10 minutes)

About weather observations | Map of weather stations | Latest weather observations for QLD | Other Formats
Station Details ID: 040908 Name: TEWANTIN RSL PARK Lat: -26.39 Lon: 153.04 Height: 6.4 m
Data from the previous 72 hours. | See also: Recent months at Tewantin
Date/Time
EST
Temp
°C
App
Temp
°C
Dew
Point
Rel
Hum
%
Delta-T
°C
Wind Press
QNH
hPa
Press
MSL
hPa
Rain
since 9 am
mm
Dir
 
Spd
km/h
Gust
km/h
Spd
kts
Gust
kts
25/03:00pm 24.9 25.3 19.0 69 3.8 ESE 15 22 8 12 1015.4 1015.4 0.0
25/02:30pm 25.5 26.0 19.2 68 4.0 SE 15 24 8 13 1015.3 - 0.0
25/02:00pm 25.2 24.8 18.9 68 4.0 ESE 19 26 10 14 1015.5 - 0.0
25/01:30pm 25.0 24.7 19.1 70 3.8 ESE 19 26 10 14 1015.9 - 0.0
25/01:00pm 25.4 25.6 18.6 66 4.3 SE 15 22 8 12 1016.2 - 0.0
25/12:30pm 25.5 25.6 18.4 65 4.5 SE 15 24 8 13 1016.3 - 0.0
25/12:00pm 25.0 25.1 18.4 66 4.2 SE 15 22 8 12 1016.8 1016.8 0.0
25/11:30am 25.4 26.5 18.8 67 4.2 SE 11 20 6 11 1017.2 - 0.0
25/11:00am 25.3 24.8 18.7 67 4.2 S 19 24 10 13 1017.5 - 0.0
25/10:30am 25.2 25.8 18.6 67 4.2 SSE 13 20 7 11 1017.9 - 0.0
25/10:00am 25.0 26.1 19.6 72 3.5 SE 13 19 7 10 1018.0 - 0.0
25/09:30am 24.9 25.8 19.3 71 3.6 S 13 20 7 11 1018.0 - 0.0
25/09:00am 24.4 26.4 19.9 76 2.9 S 9 17 5 9 1018.1 1018.1 0.4
25/08:30am 23.4 25.8 20.1 82 2.1 S 7 13 4 7 1018.2 - 0.4
25/08:00am 21.9 24.2 19.5 86 1.5 S 6 9 3 5 1017.7 - 0.4
25/07:30am 20.7 24.4 19.9 95 0.5 CALM 0 0 0 0 1017.3 - 0.4
25/07:00am 19.3 22.6 19.1 99 0.1 S 0 0 0 0 1017.0 - 0.4
25/06:30am 18.0 20.7 17.8 99 0.1 CALM 0 0 0 0 1016.7 - 0.4
25/06:00am 17.9 20.6 17.7 99 0.1 S 0 0 0 0 1016.2 1016.2 0.4
25/05:30am 18.1 20.9 17.9 99 0.1 CALM 0 0 0 0 1015.9 - 0.4
25/05:00am 17.9 20.6 17.7 99 0.1 CALM 0 0 0 0 1015.5 - 0.4
25/04:30am 18.0 20.7 17.8 99 0.1 CALM 0 0 0 0 1015.2 - 0.4
25/04:00am 17.7 20.3 17.5 99 0.1 CALM 0 0 0 0 1015.2 - 0.4
25/03:30am 18.0 20.7 17.8 99 0.1 CALM 0 0 0 0 1015.1 - 0.4
25/03:00am 17.9 20.6 17.7 99 0.1 CALM 0 0 0 0 1015.2 1015.2 0.4
25/02:30am 17.9 20.6 17.7 99 0.1 CALM 0 0 0 0 1015.1 - 0.4
25/02:00am 17.9 20.6 17.7 99 0.1 CALM 0 0 0 0 1015.3 - 0.4
25/01:30am 18.0 20.7 17.8 99 0.1 CALM 0 6 0 3 1015.5 - 0.4
25/01:00am 18.4 21.3 18.2 99 0.1 CALM 0 0 0 0 1015.6 - 0.4
25/12:30am 18.4 21.3 18.2 99 0.1 CALM 0 0 0 0 1015.8 - 0.4
25/12:00am 18.5 21.4 18.2 98 0.2 SW 0 0 0 0 1016.1 1016.1 0.4
 
Date/Time
EST
Temp
°C
App
Temp
°C
Dew
Point
Rel
Hum
%
Delta-T
°C
Wind Press
QNH
hPa
Press
MSL
hPa
Rain
since 9 am
mm
Dir
 
Spd
km/h
Gust
km/h
Spd
kts
Gust
kts
24/11:30pm 18.7 21.7 18.4 98 0.2 CALM 0 0 0 0 1016.1 - 0.4
24/11:00pm 18.9 21.8 18.2 96 0.4 SW 0 0 0 0 1016.2 - 0.4
24/10:30pm 19.3 22.4 18.6 96 0.4 CALM 0 0 0 0 1016.4 - 0.4
24/10:00pm 19.7 22.9 18.9 95 0.5 CALM 0 0 0 0 1016.6 - 0.4
24/09:30pm 20.3 23.8 19.6 96 0.4 CALM 0 0 0 0 1016.3 - 0.4
24/09:00pm 20.3 23.8 19.5 95 0.5 CALM 0 0 0 0 1016.5 1016.5 0.4
24/08:30pm 20.6 24.0 19.4 93 0.8 CALM 0 0 0 0 1016.4 - 0.4
24/08:00pm 21.0 24.5 19.6 92 0.9 CALM 0 0 0 0 1016.0 - 0.4
24/07:30pm 21.5 24.1 20.1 92 0.9 S 6 9 3 5 1015.8 - 0.4
24/07:00pm 22.1 25.9 20.2 89 1.2 CALM 0 0 0 0 1015.7 - 0.4
24/06:30pm 22.3 26.0 20.0 87 1.5 CALM 0 0 0 0 1015.3 - 0.4
24/06:00pm 22.8 25.4 20.0 84 1.8 E 6 7 3 4 1015.0 1015.0 0.4
24/05:30pm 23.4 25.6 19.5 79 2.5 ESE 7 11 4 6 1014.5 - 0.4
24/05:00pm 23.8 25.8 19.9 79 2.5 ESE 9 13 5 7 1014.4 - 0.4
24/04:30pm 23.7 26.2 19.8 79 2.5 E 6 9 3 5 1014.7 - 0.4
24/04:00pm 23.8 25.8 19.9 79 2.5 E 9 13 5 7 1014.3 - 0.4
24/03:30pm 24.1 26.0 19.8 77 2.8 E 9 17 5 9 1014.0 - 0.4
24/03:00pm 24.6 25.9 20.1 76 2.9 E 13 17 7 9 1013.9 1013.9 0.4
24/02:30pm 24.7 25.4 18.9 70 3.7 E 13 19 7 10 1014.1 - 0.4
24/02:00pm 25.6 26.3 18.8 66 4.3 E 13 19 7 10 1014.1 - 0.4
24/01:30pm 25.9 25.8 17.8 61 5.1 E 15 20 8 11 1014.1 - 0.4
24/01:00pm 25.9 26.4 17.5 59 5.3 SE 11 15 6 8 1014.6 - 0.4
24/12:30pm 25.5 26.3 17.2 60 5.2 E 9 15 5 8 1015.2 - 0.4
24/12:00pm 26.1 27.6 18.0 61 5.1 ESE 7 13 4 7 1015.9 1015.9 0.4
24/11:30am 25.2 26.3 17.9 64 4.6 ESE 9 15 5 8 1016.4 - 0.4
24/11:00am 25.1 26.6 18.8 68 4.0 ESE 9 13 5 7 1016.6 - 0.4
24/10:30am 25.3 27.2 19.7 71 3.6 SE 9 15 5 8 1017.0 - 0.4
24/10:00am 24.5 25.9 18.7 70 3.7 S 9 15 5 8 1017.2 - 0.4
24/09:30am 22.8 23.6 17.3 71 3.4 S 9 13 5 7 1017.1 - 0.0
24/09:00am 21.8 23.1 17.6 77 2.6 S 7 11 4 6 1017.3 1017.3 3.8
24/08:30am 20.6 23.2 17.4 82 2.0 CALM 0 6 0 3 1017.3 - 3.8
24/08:00am 20.0 22.7 17.8 87 1.4 CALM 0 0 0 0 1017.2 - 3.8
24/07:30am 19.2 22.0 18.0 93 0.7 CALM 0 0 0 0 1016.8 - 3.8
24/07:00am 18.6 21.3 17.8 95 0.5 CALM 0 0 0 0 1016.9 - 3.8
24/06:30am 18.2 20.8 17.4 95 0.5 CALM 0 0 0 0 1016.3 - 3.8
24/06:00am 18.3 20.8 17.3 94 0.6 CALM 0 0 0 0 1016.2 1016.2 3.8
24/05:30am 18.4 21.0 17.4 94 0.6 CALM 0 0 0 0 1015.5 - 3.8
24/05:00am 18.7 21.4 17.7 94 0.6 CALM 0 0 0 0 1015.3 - 3.8
24/04:30am 18.8 21.4 17.5 92 0.8 CALM 0 2 0 1 1015.2 - 3.8
24/04:00am 19.4 22.4 18.4 94 0.6 CALM 0 0 0 0 1015.2 - 3.8
24/03:30am 19.6 22.5 18.3 92 0.8 CALM 0 0 0 0 1015.3 - 3.8
24/03:00am 19.5 22.2 17.8 90 1.0 CALM 0 0 0 0 1015.4 1015.4 3.8
24/02:30am 19.7 21.8 18.0 90 1.0 S 4 7 2 4 1015.7 - 3.8
24/02:00am 20.0 21.4 18.7 92 0.8 S 9 11 5 6 1015.5 - 3.8
24/01:30am 20.0 23.1 18.7 92 0.8 CALM 0 0 0 0 1016.0 - 3.8
24/01:00am 20.2 23.5 19.2 94 0.6 CALM 0 0 0 0 1016.1 - 3.8
24/12:30am 20.3 23.8 19.5 95 0.5 CALM 0 0 0 0 1016.4 - 3.8
24/12:00am 20.2 23.5 19.2 94 0.6 CALM 0 0 0 0 1016.8 1016.8 3.8
 
Date/Time
EST
Temp
°C
App
Temp
°C
Dew
Point
Rel
Hum
%
Delta-T
°C
Wind Press
QNH
hPa
Press
MSL
hPa
Rain
since 9 am
mm
Dir
 
Spd
km/h
Gust
km/h
Spd
kts
Gust
kts
23/11:30pm 20.0 23.1 18.7 92 0.8 CALM 0 0 0 0 1016.9 - 3.8
23/11:00pm 20.0 23.1 18.7 92 0.8 CALM 0 0 0 0 1017.1 - 3.8
23/10:30pm 20.2 23.2 18.5 90 1.1 CALM 0 6 0 3 1017.4 - 3.8
23/10:00pm 20.1 22.9 18.9 93 0.8 NW 2 7 1 4 1017.6 - 3.8
23/09:30pm 20.3 23.1 18.8 91 0.9 W 2 6 1 3 1017.7 - 3.8
23/09:00pm 20.1 23.3 18.8 92 0.8 CALM 0 6 0 3 1017.8 1017.8 3.8
23/08:30pm 20.1 23.3 18.8 92 0.8 CALM 0 0 0 0 1017.8 - 3.8
23/08:00pm 20.5 22.5 18.8 90 1.1 SW 6 7 3 4 1017.7 - 3.8
23/07:30pm 20.7 22.8 19.0 90 1.1 WSW 6 9 3 5 1017.4 - 3.8
23/07:00pm 20.8 23.0 19.3 91 0.9 SSW 6 9 3 5 1017.4 - 3.8
23/06:30pm 20.7 23.1 19.7 94 0.6 SW 6 7 3 4 1017.4 - 3.8
23/06:00pm 20.7 23.0 19.4 92 0.8 SSE 6 7 3 4 1017.1 1017.1 3.8
23/05:30pm 20.7 24.4 19.9 95 0.5 CALM 0 0 0 0 1017.1 - 3.8
23/05:00pm 20.8 24.4 19.8 94 0.6 CALM 0 0 0 0 1016.9 - 3.8
23/04:30pm 20.8 24.0 19.8 94 0.6 WNW 2 9 1 5 1016.6 - 3.8
23/04:00pm 20.6 22.9 19.8 95 0.5 ENE 7 11 4 6 1016.3 - 3.6
23/03:30pm 20.6 21.1 19.3 92 0.8 NE 15 20 8 11 1016.4 - 2.8
23/03:00pm 22.5 24.2 18.5 78 2.5 NE 7 11 4 6 1016.1 1016.1 0.0
23/02:30pm 23.5 24.8 18.4 73 3.2 ENE 9 15 5 8 1016.2 - 0.0
23/02:00pm 24.0 24.5 17.5 67 4.0 E 11 17 6 9 1016.2 - 0.0
23/01:30pm 24.4 25.5 18.1 68 4.0 E 9 17 5 9 1016.5 - 0.0
23/01:00pm 24.7 25.8 17.9 66 4.3 SE 9 15 5 8 1016.6 - 0.0
23/12:30pm 25.0 25.9 18.4 66 4.2 ESE 11 17 6 9 1016.9 - 0.0
23/12:00pm 24.6 25.7 18.1 67 4.1 ESE 9 17 5 9 1017.6 1017.6 0.0
23/11:30am 24.8 25.9 18.0 66 4.3 SE 9 13 5 7 1017.9 - 0.0
23/11:00am 24.5 25.8 18.4 69 3.9 S 9 15 5 8 1018.4 - 0.0
23/10:30am 23.9 24.8 17.6 68 3.9 SSE 9 13 5 7 1018.8 - 0.0
23/10:00am 23.9 24.4 17.4 67 4.0 S 11 17 6 9 1018.8 - 0.0
23/09:30am 23.8 25.2 18.7 73 3.2 S 9 15 5 8 1019.1 - 0.0
23/09:00am 21.7 22.7 17.7 78 2.5 S 9 13 5 7 1019.3 1019.3 0.0
23/08:30am 20.4 22.2 18.2 87 1.4 S 6 9 3 5 1019.5 - 0.0
23/08:00am 19.3 21.9 17.6 90 1.0 CALM 0 0 0 0 1019.1 - 0.0
23/07:30am 18.5 20.3 17.5 94 0.6 SSW 4 7 2 4 1019.0 - 0.0
23/07:00am 18.0 19.1 17.0 94 0.6 NNW 7 11 4 6 1019.4 - 0.0
23/06:30am 17.8 20.3 17.2 96 0.4 CALM 0 0 0 0 1019.0 - 0.0
23/06:00am 17.4 19.6 16.6 95 0.5 CALM 0 0 0 0 1018.5 1018.5 0.0
23/05:30am 17.5 19.7 16.5 94 0.6 CALM 0 0 0 0 1018.4 - 0.0
23/05:00am 17.5 19.7 16.4 93 0.7 CALM 0 0 0 0 1018.3 - 0.0
23/04:30am 17.9 20.3 17.1 95 0.5 CALM 0 0 0 0 1018.2 - 0.0
23/04:00am 18.0 20.5 17.2 95 0.5 CALM 0 0 0 0 1018.0 - 0.0
23/03:30am 18.0 20.4 16.9 93 0.7 CALM 0 0 0 0 1017.8 - 0.0
23/03:00am 18.1 20.3 16.6 91 0.9 CALM 0 0 0 0 1017.9 1017.9 0.0
23/02:30am 18.1 20.4 16.8 92 0.8 CALM 0 0 0 0 1018.3 - 0.0
23/02:00am 18.2 20.6 16.9 92 0.8 CALM 0 0 0 0 1018.3 - 0.0
23/01:30am 18.1 20.5 17.1 94 0.6 CALM 0 0 0 0 1018.5 - 0.0
23/01:00am 17.9 20.1 16.6 92 0.8 CALM 0 0 0 0 1018.6 - 0.0
23/12:30am 18.0 20.3 16.7 92 0.8 CALM 0 0 0 0 1018.9 - 0.0
23/12:00am 18.2 20.5 16.7 91 0.9 CALM 0 0 0 0 1019.0 1019.0 0.0
 
Date/Time
EST
Temp
°C
App
Temp
°C
Dew
Point
Rel
Hum
%
Delta-T
°C
Wind Press
QNH
hPa
Press
MSL
hPa
Rain
since 9 am
mm
Dir
 
Spd
km/h
Gust
km/h
Spd
kts
Gust
kts
22/11:30pm 18.3 20.5 16.6 90 1.0 CALM 0 0 0 0 1019.2 - 0.0
22/11:00pm 18.6 20.8 16.6 88 1.2 CALM 0 0 0 0 1019.5 - 0.0
22/10:30pm 18.7 20.8 16.3 86 1.4 CALM 0 0 0 0 1019.4 - 0.0
22/10:00pm 19.1 21.3 16.5 85 1.6 CALM 0 0 0 0 1019.5 - 0.0
22/09:30pm 19.3 21.1 16.5 84 1.7 SW 2 6 1 3 1019.6 - 0.0
22/09:00pm 19.4 21.6 16.4 83 1.8 CALM 0 0 0 0 1019.7 1019.7 0.0
22/08:30pm 19.7 21.8 16.3 81 2.0 CALM 0 0 0 0 1020.0 - 0.0
22/08:00pm 20.3 22.1 16.5 79 2.3 SSW 2 7 1 4 1019.9 - 0.0
22/07:30pm 20.8 21.9 16.6 77 2.5 SW 6 7 3 4 1019.7 - 0.0
22/07:00pm 21.3 23.2 16.7 75 2.8 SW 2 6 1 3 1019.4 - 0.0
22/06:30pm 21.9 23.9 16.0 69 3.6 CALM 0 0 0 0 1019.2 - 0.0
22/06:00pm 22.1 23.7 15.9 68 3.7 ENE 2 6 1 3 1019.0 1019.0 0.0
22/05:30pm 22.7 24.1 15.3 63 4.4 ENE 2 6 1 3 1018.9 - 0.0
22/05:00pm 23.6 24.1 15.6 61 4.8 E 7 11 4 6 1018.7 - 0.0
22/04:30pm 23.9 24.0 16.4 63 4.6 ENE 11 15 6 8 1018.6 - 0.0
22/04:00pm 24.3 24.2 16.0 60 5.0 ENE 11 17 6 9 1018.5 - 0.0
22/03:30pm 24.6 23.8 15.2 55 5.6 ENE 13 19 7 10 1018.4 - 0.0

Other Formats:

Comma delimited format used in spreadsheet applications
http://www.bom.gov.au/fwo/IDQ60801/IDQ60801.94570.axf

JavaScript Object Notation format (JSON) in row-major order
http://www.bom.gov.au/fwo/IDQ60801/IDQ60801.94570.json